Terminal Aerodrome Forecast
Issued by NWS

Home | Current Version | Previous Version | Text Only | Print | Product List | Glossary Off
Versions: 1 2 3 4 5 6 7 8 9 10 11 12 13 14 15 16 17 18 19

000
FTUS43 KPAH 242300 AAA
TAFCGI
TAF AMD
KCGI 242336Z 2500/2524 26010KT P6SM BKN035
     FM250900 25007KT P6SM SCT025
     FM251400 20006KT P6SM SCT250=

USA.gov is the U.S. government's official web portal to all federal, state and local government web resources and services.